カーディフ の空港の天気 - METARとTAF

カーディフ空港 ( EGFF / CWL ) - イギリス カーディフ
飛行場実況気象(Metar)
観測時間02/05 19:50 GMT (02/05 19:50 UTC)
風向・風速東 2m/s
視程10km以上
天気現象
なし
気温2℃
湿度75%
気圧1045hPa
METAREGFF 051950Z AUTO 08004KT 9999 NCD 02/M02 Q1045
過去の天気等 Google飛行場航空写真 Wunderground天気予報

過去48時間のMETAR

飛行場予報(TAF)
発表時間: 2/05 17:01 GMT (2/05 17:01 UTC)
予報対象時間: 5日18時 GMT ~ 6日18時 GMT
風向・風速東 3m/s
視程10km以上
なし
6日2時 GMT ~ 6日10時 GMT に 確率 30% で一時的に
視程6000m
TAF EGFF 051701Z 0518/0618 10005KT CAVOK
PROB30 TEMPO 0602/0610 6000